Time;durP1;ratioP1;P1;durP2;ratioP2;P2;SDS_P1;SDS_P2;PMS_P1;PMS_P2;Temp;Humidity;BMP_temperature;BMP_pressure;BME280_temperature;BME280_humidity;BME280_pressure;Samples;Min_cycle;Max_cycle;Signal;HPM_P1;HPM_P2
2022/01/26 00:07:09;;;;;;;4.63;3.80;;;16.70;67.10;;;;;;5094923;28;20487;-15
2022/01/26 00:09:34;;;;;;;6.03;4.40;;;16.80;66.70;;;;;;5077330;28;20180;-16
2022/01/26 00:12:00;;;;;;;5.37;4.50;;;16.80;66.40;;;;;;5075095;28;20197;-15
2022/01/26 00:14:26;;;;;;;5.13;4.37;;;16.80;66.30;;;;;;5092898;28;20210;-15
2022/01/26 00:16:52;;;;;;;6.33;4.70;;;16.80;66.00;;;;;;5073717;28;20178;-14
2022/01/26 00:19:31;;;;;;;5.87;4.30;;;16.80;65.70;;;;;;5093678;28;20463;-14
2022/01/26 00:21:57;;;;;;;5.67;4.67;;;16.80;65.60;;;;;;5094230;28;20217;-14
2022/01/26 00:27:06;;;;;;;5.13;4.63;;;16.80;65.40;;;;;;5093271;28;20172;-14
2022/01/26 00:29:36;;;;;;;4.57;3.93;;;16.80;65.60;;;;;;5077377;28;20172;-17
2022/01/26 00:40:43;;;;;;;5.90;4.30;;;16.80;65.50;;;;;;5092531;28;20256;-14
2022/01/26 00:43:24;;;;;;;6.03;4.80;;;16.80;65.50;;;;;;5094076;28;20538;-15
2022/01/26 00:45:55;;;;;;;5.03;4.53;;;16.80;65.60;;;;;;5093553;28;20207;-15
2022/01/26 00:48:22;;;;;;;5.87;4.53;;;16.80;65.70;;;;;;5093687;28;20177;-15
2022/01/26 00:50:52;;;;;;;5.00;4.47;;;16.80;65.70;;;;;;5092395;28;20169;-14
2022/01/26 00:53:27;;;;;;;5.77;4.40;;;16.80;65.80;;;;;;5076484;28;20175;-15
2022/01/26 00:55:53;;;;;;;5.83;4.63;;;16.80;66.50;;;;;;5092625;28;20215;-15
2022/01/26 00:58:19;;;;;;;5.10;4.50;;;16.80;65.90;;;;;;5074045;28;20558;-17
2022/01/26 01:00:45;;;;;;;5.60;4.47;;;16.80;66.00;;;;;;5092572;28;20173;-16
2022/01/26 01:03:10;;;;;;;5.40;4.43;;;16.70;66.00;;;;;;5074208;28;20468;-16
2022/01/26 01:05:49;;;;;;;5.77;4.77;;;16.70;66.00;;;;;;5075967;28;20234;-15
2022/01/26 01:08:24;;;;;;;4.90;4.40;;;16.70;66.10;;;;;;5090515;28;20568;-18
2022/01/26 01:10:51;;;;;;;6.00;4.70;;;16.70;66.10;;;;;;5094093;28;20167;-14
2022/01/26 01:13:22;;;;;;;5.97;4.80;;;16.70;66.10;;;;;;5094644;28;20485;-14
2022/01/26 01:15:50;;;;;;;6.70;5.17;;;16.70;66.20;;;;;;5094679;28;20538;-15
2022/01/26 01:23:34;;;;;;;6.00;4.80;;;16.60;66.60;;;;;;5092010;28;20207;-14
2022/01/26 01:28:58;;;;;;;6.57;5.17;;;16.60;66.70;;;;;;5091280;28;20175;-17
2022/01/26 01:31:43;;;;;;;6.40;5.07;;;16.60;66.70;;;;;;5075341;28;20172;-16
2022/01/26 01:34:10;;;;;;;6.67;5.03;;;16.60;66.70;;;;;;5092636;28;20207;-14
2022/01/26 01:36:39;;;;;;;5.57;4.70;;;16.60;66.70;;;;;;5092688;28;20167;-17
2022/01/26 01:39:09;;;;;;;6.93;5.40;;;16.60;66.70;;;;;;5091939;28;20249;-14
2022/01/26 01:41:37;;;;;;;6.30;5.47;;;16.60;66.60;;;;;;5073769;28;20172;-15
2022/01/26 01:44:04;;;;;;;5.77;5.00;;;16.60;66.50;;;;;;5091741;28;20218;-14
2022/01/26 01:46:30;;;;;;;6.63;5.23;;;16.60;66.50;;;;;;5090515;28;20198;-16
2022/01/26 01:48:56;;;;;;;6.00;5.37;;;16.60;66.40;;;;;;5074926;28;20175;-14
2022/01/26 01:51:29;;;;;;;6.43;5.53;;;16.60;66.30;;;;;;5092442;28;20201;-15
2022/01/26 01:53:54;;;;;;;6.27;5.50;;;16.60;66.30;;;;;;5093797;28;20201;-15
2022/01/26 01:56:24;;;;;;;6.47;5.77;;;16.60;66.30;;;;;;5092748;28;20294;-14
2022/01/26 01:58:50;;;;;;;7.57;5.80;;;16.60;66.30;;;;;;5093016;28;20195;-14
2022/01/26 02:01:16;;;;;;;7.07;5.70;;;16.60;66.20;;;;;;5093168;28;20168;-15
2022/01/26 02:03:42;;;;;;;7.33;5.47;;;16.60;66.10;;;;;;5090539;28;20236;-14
2022/01/26 02:06:08;;;;;;;6.77;5.50;;;16.60;66.10;;;;;;5091420;28;20211;-17
2022/01/26 02:08:34;;;;;;;7.57;5.53;;;16.60;66.00;;;;;;5073183;28;20273;-15
2022/01/26 02:11:00;;;;;;;7.03;5.83;;;16.60;66.00;;;;;;5091464;28;20689;-15
2022/01/26 02:13:34;;;;;;;7.80;5.83;;;16.60;66.00;;;;;;5093389;28;20186;-15
2022/01/26 03:02:08;;;;;;;7.93;6.30;;;16.50;66.10;;;;;;5017904;28;20569;-77
2022/01/26 03:04:44;;;;;;;8.33;6.37;;;16.50;66.40;;;;;;5057690;28;20184;-77
2022/01/26 03:07:26;;;;;;;9.30;6.47;;;16.40;66.40;;;;;;5058531;28;20182;-77
2022/01/26 03:10:03;;;;;;;9.07;6.67;;;16.40;66.60;;;;;;5059306;28;20268;-77
2022/01/26 03:12:44;;;;;;;8.13;6.37;;;16.40;66.70;;;;;;5058118;28;20596;-77
2022/01/26 03:15:19;;;;;;;9.07;6.80;;;16.40;66.90;;;;;;5058874;28;20397;-77
2022/01/26 03:20:15;;;;;;;8.80;6.60;;;16.30;67.00;;;;;;5077365;28;20257;-77
2022/01/26 03:33:52;;;;;;;9.33;7.10;;;16.30;67.70;;;;;;5076310;28;20173;-77
2022/01/26 03:36:12;;;;;;;9.87;7.10;;;16.20;67.80;;;;;;5074643;28;20175;-76
2022/01/26 03:38:50;;;;;;;9.83;7.43;;;16.10;68.00;;;;;;5057566;28;20179;-76
2022/01/26 03:43:42;;;;;;;10.30;6.93;;;16.10;68.70;;;;;;5076369;28;20496;-77
2022/01/26 03:46:09;;;;;;;8.73;7.17;;;16.00;69.10;;;;;;5075915;28;20600;-77
2022/01/26 03:48:35;;;;;;;9.23;7.00;;;16.00;69.30;;;;;;5057537;28;20187;-76
2022/01/26 03:51:02;;;;;;;9.83;7.50;;;16.00;69.60;;;;;;5058144;28;20176;-77
2022/01/26 03:53:27;;;;;;;9.10;7.23;;;15.90;69.90;;;;;;5058019;28;20181;-76
2022/01/26 03:55:53;;;;;;;9.20;7.43;;;15.90;70.80;;;;;;5057744;28;20183;-75
2022/01/26 03:58:19;;;;;;;10.50;7.10;;;15.90;70.40;;;;;;5059167;28;20274;-77
2022/01/26 04:00:45;;;;;;;9.03;7.13;;;15.80;70.60;;;;;;5060725;28;20277;-77
2022/01/26 04:03:11;;;;;;;8.00;6.97;;;15.80;71.00;;;;;;5058180;28;20229;-77
2022/01/26 04:05:36;;;;;;;9.33;6.90;;;15.70;71.10;;;;;;5057673;28;20425;-76
2022/01/26 04:08:09;;;;;;;8.17;6.67;;;15.70;71.40;;;;;;5057033;28;20188;-77
2022/01/26 04:13:04;;;;;;;9.30;7.17;;;16.00;70.30;;;;;;5075957;28;20175;-77
2022/01/26 04:15:34;;;;;;;10.03;7.63;;;17.80;59.20;;;;;;5057241;28;20219;-77
2022/01/26 04:18:01;;;;;;;10.03;6.83;;;19.60;54.30;;;;;;5073779;28;20223;-77
2022/01/26 04:20:31;;;;;;;8.90;7.13;;;20.30;52.30;;;;;;5057087;28;20511;-77
2022/01/26 04:23:13;;;;;;;8.67;6.80;;;20.50;51.00;;;;;;5056823;28;20177;-77
2022/01/26 04:25:41;;;;;;;9.57;7.37;;;20.70;50.30;;;;;;5056670;28;20180;-77
2022/01/26 04:28:12;;;;;;;9.53;7.20;;;21.00;49.70;;;;;;5056696;28;20190;-76
2022/01/26 04:30:38;;;;;;;9.50;7.67;;;21.30;49.10;;;;;;5056881;28;20433;-77
2022/01/26 04:33:05;;;;;;;11.03;7.60;;;21.70;48.60;;;;;;5056891;28;20194;-77
2022/01/26 04:35:33;;;;;;;10.60;8.40;;;21.70;48.20;;;;;;5060381;28;20212;-77
2022/01/26 04:40:27;;;;;;;12.53;8.27;;;21.40;48.20;;;;;;5076320;28;20218;-77
2022/01/26 04:43:01;;;;;;;9.70;7.77;;;21.10;48.60;;;;;;5073428;28;20172;-77
2022/01/26 04:45:26;;;;;;;10.87;7.93;;;20.90;48.90;;;;;;5056963;28;20561;-78
2022/01/26 04:47:52;;;;;;;10.20;8.00;;;20.60;49.30;;;;;;5055950;28;20176;-76
2022/01/26 04:50:18;;;;;;;10.43;8.13;;;20.30;49.70;;;;;;5056270;28;20205;-77
2022/01/26 04:52:46;;;;;;;10.60;8.20;;;20.00;50.10;;;;;;5057036;28;20461;-78
2022/01/26 04:55:12;;;;;;;9.37;7.73;;;19.80;50.50;;;;;;5074160;28;20218;-77
2022/01/26 04:57:38;;;;;;;11.90;9.20;;;19.60;50.90;;;;;;5055999;28;20265;-77
2022/01/26 05:00:06;;;;;;;12.27;8.93;;;19.40;51.30;;;;;;5074105;28;20212;-77
2022/01/26 05:02:32;;;;;;;10.80;8.63;;;19.10;51.80;;;;;;5055234;28;20168;-77
2022/01/26 05:04:58;;;;;;;10.83;8.67;;;18.90;52.30;;;;;;5055356;28;20189;-77
2022/01/26 05:07:24;;;;;;;11.03;8.40;;;18.70;52.80;;;;;;5055858;28;20174;-77
2022/01/26 05:09:49;;;;;;;11.80;8.83;;;18.50;53.40;;;;;;5057048;28;20186;-76
2022/01/26 05:12:16;;;;;;;11.43;8.97;;;18.30;54.00;;;;;;5055808;28;20179;-77
2022/01/26 05:14:44;;;;;;;11.87;9.27;;;18.10;54.60;;;;;;5056559;28;20207;-77
2022/01/26 05:17:12;;;;;;;12.17;8.63;;;17.90;55.10;;;;;;5055364;28;20587;-75
2022/01/26 05:19:38;;;;;;;12.97;9.40;;;17.80;55.70;;;;;;5055479;28;20179;-77
2022/01/26 05:22:04;;;;;;;11.53;9.47;;;17.70;56.70;;;;;;5062683;28;20192;-77
2022/01/26 05:24:30;;;;;;;12.57;9.60;;;17.50;56.80;;;;;;5054651;28;20274;-77
2022/01/26 05:26:56;;;;;;;13.23;10.07;;;17.40;57.30;;;;;;5054750;28;20297;-77
2022/01/26 05:29:22;;;;;;;12.40;9.80;;;17.20;57.80;;;;;;5057845;28;20178;-77
2022/01/26 05:31:48;;;;;;;12.53;9.70;;;17.20;58.40;;;;;;5076894;28;20171;-77
2022/01/26 05:34:14;;;;;;;12.77;9.40;;;17.10;58.90;;;;;;5056913;28;20660;-76
2022/01/26 05:36:40;;;;;;;12.47;9.93;;;16.90;59.30;;;;;;5055137;28;20184;-77
2022/01/26 05:39:05;;;;;;;12.90;9.93;;;16.90;59.70;;;;;;5058350;28;20212;-76
2022/01/26 05:41:31;;;;;;;14.20;10.07;;;16.80;60.20;;;;;;5059343;28;20195;-77
2022/01/26 05:43:57;;;;;;;12.10;9.60;;;16.70;60.70;;;;;;5059019;28;20449;-77
2022/01/26 05:46:34;;;;;;;13.17;9.63;;;16.60;61.20;;;;;;5056317;28;20185;-76
2022/01/26 05:48:59;;;;;;;11.30;9.27;;;16.60;61.80;;;;;;5072035;28;20635;-77
2022/01/26 05:51:27;;;;;;;13.57;10.23;;;16.50;62.30;;;;;;5071806;28;20174;-75
2022/01/26 05:53:52;;;;;;;13.93;10.40;;;16.50;62.80;;;;;;5054590;28;20220;-76
2022/01/26 05:56:18;;;;;;;12.27;9.60;;;16.40;63.20;;;;;;5055342;28;20176;-76
2022/01/26 05:58:44;;;;;;;14.80;10.90;;;16.50;63.00;;;;;;5070062;28;20248;-76
2022/01/26 06:01:12;;;;;;;13.97;10.43;;;16.70;61.70;;;;;;5052117;28;20273;-77
2022/01/26 06:03:37;;;;;;;15.30;11.23;;;17.00;59.80;;;;;;5069636;28;20222;-77
2022/01/26 06:06:03;;;;;;;13.83;10.20;;;17.50;58.20;;;;;;5052167;28;20187;-77
2022/01/26 06:08:29;;;;;;;14.07;10.80;;;18.10;56.40;;;;;;5051741;28;20188;-77
2022/01/26 06:10:56;;;;;;;13.73;10.20;;;18.60;54.60;;;;;;5052513;28;20172;-77
2022/01/26 06:13:22;;;;;;;13.87;10.97;;;18.90;53.70;;;;;;5051303;28;20209;-76
2022/01/26 06:15:48;;;;;;;14.10;10.87;;;19.20;52.90;;;;;;5069472;28;20175;-77
2022/01/26 06:18:14;;;;;;;15.77;11.50;;;19.50;52.20;;;;;;5051990;28;20460;-77
2022/01/26 06:20:40;;;;;;;13.93;10.97;;;19.80;51.50;;;;;;5050666;28;20531;-76
2022/01/26 06:23:06;;;;;;;14.77;10.60;;;19.80;51.20;;;;;;5050312;28;20354;-76
2022/01/26 06:25:34;;;;;;;14.23;10.90;;;19.70;51.10;;;;;;5052306;28;20665;-77
2022/01/26 06:28:06;;;;;;;14.47;10.67;;;19.50;51.30;;;;;;5055162;28;20247;-76
2022/01/26 06:30:31;;;;;;;15.07;11.37;;;19.30;51.80;;;;;;5052697;28;20186;-77
2022/01/26 06:32:57;;;;;;;13.40;10.77;;;18.90;52.30;;;;;;5051559;28;20450;-76
2022/01/26 06:35:24;;;;;;;16.00;12.23;;;18.70;53.00;;;;;;5072289;28;20198;-77
2022/01/26 06:37:49;;;;;;;17.50;12.13;;;18.40;53.70;;;;;;5055823;28;20464;-76
2022/01/26 06:40:23;;;;;;;15.23;11.13;;;18.20;54.50;;;;;;5058386;28;20176;-78
2022/01/26 06:42:56;;;;;;;14.90;11.73;;;17.90;55.20;;;;;;5060029;28;20259;-77
2022/01/26 06:45:25;;;;;;;16.60;12.10;;;17.70;55.90;;;;;;5076839;28;20280;-77
2022/01/26 06:50:36;;;;;;;15.03;11.83;;;17.30;57.60;;;;;;5071756;28;20711;-78
2022/01/26 06:53:02;;;;;;;16.97;12.20;;;17.10;58.40;;;;;;5053567;28;20421;-77
2022/01/26 06:55:28;;;;;;;16.73;11.60;;;17.00;59.20;;;;;;5053288;28;20221;-77
2022/01/26 06:57:54;;;;;;;15.93;11.73;;;16.90;59.80;;;;;;5053457;28;20173;-77
2022/01/26 07:00:20;;;;;;;16.73;12.63;;;16.80;60.60;;;;;;5056724;28;20436;-77
2022/01/26 07:02:45;;;;;;;16.17;12.47;;;16.70;61.50;;;;;;5056065;28;20216;-77
2022/01/26 07:05:17;;;;;;;18.63;13.70;;;16.70;62.30;;;;;;5076546;28;20512;-77
2022/01/26 07:07:43;;;;;;;16.80;12.73;;;16.60;63.20;;;;;;5060081;28;20450;-77
2022/01/26 07:10:09;;;;;;;19.30;13.93;;;16.50;63.90;;;;;;5053652;28;20564;-77
2022/01/26 07:12:36;;;;;;;17.90;13.40;;;16.40;64.40;;;;;;5052676;28;20306;-78
2022/01/26 07:23:25;;;;;;;20.60;15.60;;;16.30;66.70;;;;;;5053329;28;20240;-78
2022/01/26 07:25:51;;;;;;;22.57;15.87;;;16.20;67.10;;;;;;5033134;28;20604;-77
2022/01/26 07:28:17;;;;;;;23.83;16.63;;;16.20;67.40;;;;;;5032881;28;20173;-77
2022/01/26 07:30:43;;;;;;;22.03;16.60;;;16.30;67.20;;;;;;5033796;28;20173;-77
2022/01/26 07:33:10;;;;;;;24.77;16.17;;;16.40;66.20;;;;;;5033849;28;20185;-77
2022/01/26 07:35:36;;;;;;;24.60;16.87;;;16.60;65.20;;;;;;5033998;28;20214;-77
2022/01/26 07:38:04;;;;;;;26.40;17.23;;;16.60;64.60;;;;;;5034686;28;20189;-77
2022/01/26 07:40:30;;;;;;;28.67;18.30;;;16.70;64.10;;;;;;5035560;28;20181;-77
2022/01/26 07:42:56;;;;;;;27.30;17.67;;;16.60;65.00;;;;;;5033356;28;20195;-77
2022/01/26 07:45:23;;;;;;;24.83;17.70;;;16.60;64.60;;;;;;5033947;28;20189;-78
2022/01/26 07:47:53;;;;;;;38.23;19.37;;;16.50;64.90;;;;;;5032719;28;20205;-77
2022/01/26 07:50:21;;;;;;;29.07;19.83;;;16.50;65.10;;;;;;5034322;28;20480;-78
2022/01/26 07:52:48;;;;;;;30.97;19.03;;;16.40;65.30;;;;;;5032988;28;20369;-78
2022/01/26 07:55:17;;;;;;;31.80;20.60;;;16.40;65.60;;;;;;5051128;28;20213;-77
2022/01/26 07:57:44;;;;;;;27.17;19.53;;;16.40;65.70;;;;;;5033722;28;20551;-77
2022/01/26 08:00:11;;;;;;;31.83;21.43;;;16.50;65.00;;;;;;5033002;28;20218;-77
2022/01/26 08:02:37;;;;;;;31.93;21.03;;;16.90;62.40;;;;;;5051220;28;20507;-77
2022/01/26 08:05:03;;;;;;;29.00;20.03;;;17.30;60.00;;;;;;5032676;28;20847;-77
2022/01/26 08:07:29;;;;;;;28.97;20.53;;;17.60;58.50;;;;;;5032166;28;20288;-77
2022/01/26 08:09:54;;;;;;;30.00;20.37;;;18.10;56.70;;;;;;5037538;28;20190;-77
2022/01/26 08:12:30;;;;;;;29.93;21.13;;;18.50;55.30;;;;;;5038593;28;20459;-77
2022/01/26 08:14:55;;;;;;;29.07;20.90;;;18.90;54.20;;;;;;5038979;28;20213;-77
2022/01/26 08:17:21;;;;;;;29.77;20.57;;;19.10;53.40;;;;;;5038696;28;20171;-77
2022/01/26 08:19:51;;;;;;;27.70;20.57;;;19.20;52.80;;;;;;5037792;28;20175;-77
2022/01/26 08:22:20;;;;;;;30.70;20.93;;;19.20;52.50;;;;;;5037067;28;20183;-77
2022/01/26 08:24:46;;;;;;;28.77;21.13;;;19.00;52.70;;;;;;5038159;28;20185;-77
2022/01/26 08:27:14;;;;;;;29.30;21.73;;;18.80;53.00;;;;;;5037930;28;20176;-77
2022/01/26 08:29:54;;;;;;;29.60;20.53;;;18.60;53.50;;;;;;5041640;28;20173;-77
2022/01/26 08:32:20;;;;;;;29.20;20.90;;;18.30;54.10;;;;;;5039421;28;20303;-78
2022/01/26 08:34:46;;;;;;;29.43;21.27;;;18.00;54.90;;;;;;5040749;28;20589;-78
2022/01/26 08:37:11;;;;;;;30.13;21.50;;;17.80;55.70;;;;;;5057382;28;20174;-77
2022/01/26 08:39:38;;;;;;;29.43;21.83;;;17.60;56.30;;;;;;5058497;28;20177;-78
2022/01/26 08:42:06;;;;;;;30.77;22.00;;;17.40;57.00;;;;;;5058034;28;20181;-77
2022/01/26 08:44:32;;;;;;;29.77;21.57;;;17.30;57.60;;;;;;5058334;28;20241;-77
2022/01/26 08:46:58;;;;;;;28.73;21.10;;;17.10;58.00;;;;;;5056347;28;20178;-77
2022/01/26 08:49:27;;;;;;;31.73;22.37;;;17.00;58.50;;;;;;5057349;28;20193;-78
2022/01/26 08:51:54;;;;;;;30.37;22.37;;;16.90;58.90;;;;;;5037650;28;20182;-78
2022/01/26 08:54:22;;;;;;;29.63;21.77;;;16.80;59.20;;;;;;5037175;28;20241;-77
2022/01/26 08:56:52;;;;;;;28.93;21.77;;;16.80;59.60;;;;;;5055193;28;20774;-77
2022/01/26 08:59:19;;;;;;;30.60;22.27;;;16.70;59.80;;;;;;5033931;28;20715;-78
2022/01/26 09:01:45;;;;;;;32.13;21.70;;;16.60;60.30;;;;;;5033141;28;20173;-78
2022/01/26 09:04:11;;;;;;;30.27;22.00;;;16.50;60.60;;;;;;5031671;28;20238;-77
2022/01/26 09:06:49;;;;;;;30.53;21.53;;;16.50;61.60;;;;;;5049462;28;20220;-78
2022/01/26 09:09:20;;;;;;;29.37;20.90;;;16.40;61.20;;;;;;5056481;28;20191;-77
2022/01/26 09:11:47;;;;;;;31.23;22.17;;;16.40;61.50;;;;;;5054633;28;20525;-78
2022/01/26 09:14:18;;;;;;;28.67;21.17;;;16.30;61.70;;;;;;5051832;28;20219;-76
2022/01/26 09:16:45;;;;;;;31.43;21.87;;;16.30;61.90;;;;;;5051780;28;20176;-77
2022/01/26 09:19:25;;;;;;;29.87;22.00;;;16.30;62.10;;;;;;5053819;28;20173;-77
2022/01/26 09:21:51;;;;;;;29.90;21.43;;;16.20;62.20;;;;;;5057629;28;20172;-77
2022/01/26 09:24:17;;;;;;;33.73;22.57;;;16.30;62.00;;;;;;5050174;28;20675;-77
2022/01/26 09:26:43;;;;;;;32.90;22.00;;;16.50;61.10;;;;;;5051739;28;20272;-77
2022/01/26 09:29:08;;;;;;;30.03;20.97;;;16.80;59.70;;;;;;5051359;28;20259;-78
2022/01/26 09:31:34;;;;;;;34.53;22.53;;;17.30;58.30;;;;;;5050412;28;20182;-78
2022/01/26 09:34:01;;;;;;;30.00;21.60;;;18.00;56.00;;;;;;5050680;28;20453;-78
2022/01/26 09:36:27;;;;;;;32.23;21.70;;;18.60;54.20;;;;;;5051875;28;20169;-78
2022/01/26 09:38:53;;;;;;;30.43;21.50;;;18.80;53.20;;;;;;5051636;28;20431;-77
2022/01/26 09:41:19;;;;;;;30.90;21.40;;;18.90;52.80;;;;;;5051274;28;20555;-76
2022/01/26 09:43:47;;;;;;;33.20;22.47;;;18.90;52.50;;;;;;5035587;28;20187;-78
2022/01/26 09:46:13;;;;;;;29.70;21.50;;;19.00;52.20;;;;;;5055529;28;20197;-78
2022/01/26 09:48:39;;;;;;;30.90;22.17;;;18.90;52.20;;;;;;5053482;28;20175;-77
2022/01/26 09:51:06;;;;;;;31.70;21.77;;;18.80;52.30;;;;;;5051505;28;20175;-77
2022/01/26 09:53:35;;;;;;;28.37;20.93;;;18.50;52.80;;;;;;5054830;28;20552;-77
2022/01/26 09:56:01;;;;;;;28.73;21.40;;;18.30;53.30;;;;;;5056596;28;20189;-76
2022/01/26 09:58:27;;;;;;;30.97;21.70;;;18.00;53.90;;;;;;5056744;28;20177;-78
2022/01/26 10:01:01;;;;;;;30.20;21.60;;;17.80;54.50;;;;;;5053349;28;20182;-78
2022/01/26 10:03:31;;;;;;;32.33;22.17;;;17.60;55.10;;;;;;5067916;28;20178;-77
2022/01/26 10:05:57;;;;;;;33.67;22.47;;;17.50;55.70;;;;;;5067884;28;20180;-77
2022/01/26 10:19:21;;;;;;;31.37;21.73;;;16.80;57.90;;;;;;5071298;28;20898;-78
2022/01/26 10:21:49;;;;;;;30.37;20.87;;;16.80;58.30;;;;;;5074156;28;20172;-77
2022/01/26 10:24:16;;;;;;;30.93;20.10;;;16.70;58.70;;;;;;5056164;28;20172;-77
2022/01/26 10:26:50;;;;;;;30.83;20.40;;;16.60;59.00;;;;;;5039534;28;20297;-78
2022/01/26 10:29:16;;;;;;;29.23;21.40;;;16.60;59.30;;;;;;5055976;28;20176;-78
2022/01/26 10:31:43;;;;;;;29.33;20.63;;;16.50;59.60;;;;;;5056779;28;20423;-78
2022/01/26 10:34:17;;;;;;;29.50;19.93;;;16.50;59.90;;;;;;5055517;28;20265;-77
2022/01/26 10:36:49;;;;;;;31.17;20.90;;;16.40;60.20;;;;;;5056193;28;20183;-77
2022/01/26 10:39:35;;;;;;;32.63;21.67;;;16.40;60.70;;;;;;5072946;28;20260;-78
2022/01/26 10:42:06;;;;;;;29.17;19.67;;;16.30;61.20;;;;;;5055970;28;20233;-78
2022/01/26 10:47:11;;;;;;;30.37;19.97;;;16.30;62.10;;;;;;5073242;28;20554;-77
2022/01/26 10:52:25;;;;;;;28.80;19.77;;;16.20;62.80;;;;;;5067616;28;20203;-78
2022/01/26 10:54:51;;;;;;;28.67;19.10;;;16.20;63.10;;;;;;5049341;28;20262;-78
2022/01/26 10:57:18;;;;;;;27.77;18.37;;;16.20;62.80;;;;;;5049148;28;20173;-78
2022/01/26 10:59:46;;;;;;;25.93;19.00;;;16.50;61.90;;;;;;5067099;28;20169;-77
2022/01/26 11:02:13;;;;;;;27.40;19.17;;;17.00;59.50;;;;;;5050202;28;20184;-77
2022/01/26 11:04:41;;;;;;;28.70;20.20;;;17.70;57.00;;;;;;5049804;28;20745;-78
2022/01/26 11:07:10;;;;;;;27.50;19.27;;;18.30;55.20;;;;;;5050340;28;20327;-77
2022/01/26 11:09:49;;;;;;;26.87;18.70;;;18.50;54.10;;;;;;5050220;28;20576;-78
2022/01/26 11:12:26;;;;;;;24.97;18.23;;;18.60;53.70;;;;;;5050044;28;20176;-78
2022/01/26 11:14:58;;;;;;;26.33;18.87;;;18.40;53.80;;;;;;5049885;28;20629;-78
2022/01/26 11:17:27;;;;;;;28.47;18.63;;;18.10;54.40;;;;;;5050103;28;20585;-76
2022/01/26 11:19:56;;;;;;;28.07;19.53;;;17.80;55.20;;;;;;5049038;28;20169;-75
2022/01/26 11:22:27;;;;;;;25.97;18.67;;;17.70;56.70;;;;;;5052752;28;20180;-76
2022/01/26 11:24:54;;;;;;;31.03;19.27;;;17.50;57.40;;;;;;5063909;28;20242;-76
2022/01/26 11:27:21;;;;;;;27.10;19.97;;;17.30;57.90;;;;;;5056014;28;20184;-76
2022/01/26 11:29:53;;;;;;;32.00;19.87;;;17.20;58.40;;;;;;5037025;28;20387;-76
2022/01/26 11:32:37;;;;;;;27.93;19.47;;;17.10;59.00;;;;;;5031902;28;20495;-76
2022/01/26 11:35:07;;;;;;;30.70;19.23;;;17.00;59.40;;;;;;5033327;28;20206;-76
2022/01/26 11:37:45;;;;;;;26.17;18.70;;;16.90;59.80;;;;;;5031966;28;20277;-76
2022/01/26 11:46:16;;;;;;;27.07;18.20;;;16.60;61.20;;;;;;5075573;28;20278;-76
2022/01/26 11:48:42;;;;;;;24.53;17.67;;;16.60;61.70;;;;;;5054467;28;20573;-76
2022/01/26 11:51:12;;;;;;;26.90;18.63;;;16.50;62.10;;;;;;5069377;28;20173;-76
2022/01/26 11:53:37;;;;;;;24.77;17.83;;;16.50;62.40;;;;;;5052468;28;20211;-76
2022/01/26 11:56:14;;;;;;;28.03;18.07;;;16.40;62.50;;;;;;5051513;28;20278;-75
2022/01/26 11:58:44;;;;;;;26.00;17.93;;;16.40;62.80;;;;;;5051469;28;20275;-76
2022/01/26 12:03:56;;;;;;;25.50;17.83;;;16.50;62.60;;;;;;5070282;28;20186;-76
2022/01/26 12:06:30;;;;;;;26.50;17.30;;;16.70;61.70;;;;;;5052548;28;20202;-76
2022/01/26 12:08:58;;;;;;;24.23;16.90;;;16.90;60.60;;;;;;5051312;28;20191;-76
2022/01/26 12:11:28;;;;;;;22.70;16.00;;;17.20;59.40;;;;;;5052182;28;20230;-76
2022/01/26 12:14:03;;;;;;;26.70;17.27;;;17.40;58.40;;;;;;5050490;28;20224;-76
2022/01/26 12:16:43;;;;;;;24.13;16.20;;;17.80;57.20;;;;;;5053165;28;20173;-76
2022/01/26 12:35:57;;;;;;;22.73;15.43;;;18.00;55.60;;;;;;5071502;28;20251;-74
2022/01/26 12:43:47;;;;;;;22.33;16.43;;;17.50;57.40;;;;;;5068511;28;20573;-76
2022/01/26 12:46:17;;;;;;;20.43;15.27;;;17.30;57.90;;;;;;5068141;28;20185;-76
2022/01/26 12:48:55;;;;;;;21.03;16.10;;;17.20;58.50;;;;;;5050650;28;20450;-76
2022/01/26 12:51:22;;;;;;;22.17;15.27;;;17.10;58.90;;;;;;5049261;28;20384;-76
2022/01/26 12:54:06;;;;;;;20.03;15.17;;;17.00;59.40;;;;;;5050799;28;20332;-76
2022/01/26 12:56:33;;;;;;;21.27;14.90;;;16.90;59.80;;;;;;5050857;28;20215;-76
2022/01/26 12:59:09;;;;;;;19.77;14.80;;;16.80;60.40;;;;;;5056599;28;20563;-76
2022/01/26 13:01:36;;;;;;;21.10;15.27;;;16.70;60.90;;;;;;5056310;28;20168;-76
2022/01/26 13:04:08;;;;;;;19.70;14.80;;;16.70;61.50;;;;;;5052765;28;20177;-76
2022/01/26 13:06:40;;;;;;;21.83;14.73;;;16.60;61.90;;;;;;5067276;28;20239;-76
2022/01/26 13:09:21;;;;;;;19.80;14.73;;;16.50;62.30;;;;;;5049440;28;20277;-75
2022/01/26 13:11:49;;;;;;;19.90;14.27;;;16.50;62.80;;;;;;5051314;28;20550;-76
2022/01/26 13:14:29;;;;;;;19.90;14.27;;;16.50;63.20;;;;;;5051007;28;20239;-76
2022/01/26 13:20:27;;;;;;;18.83;13.63;;;16.40;63.70;;;;;;5068243;28;20172;-76
2022/01/26 13:23:01;;;;;;;19.00;14.03;;;16.40;64.20;;;;;;5067165;28;20196;-76
2022/01/26 13:37:17;;;;;;;17.13;12.83;;;17.20;60.00;;;;;;5074679;28;20316;-76
2022/01/26 13:39:57;;;;;;;17.43;12.90;;;17.50;58.80;;;;;;5066301;28;20726;-76
2022/01/26 13:48:20;;;;;;;20.57;13.43;;;18.40;56.10;;;;;;5065787;28;20173;-76
2022/01/26 13:53:15;;;;;;;17.47;13.23;;;18.20;55.80;;;;;;5066167;28;20204;-76
2022/01/26 13:58:43;;;;;;;19.60;13.87;;;18.00;56.30;;;;;;5063875;28;20417;-75
2022/01/26 14:01:19;;;;;;;18.13;13.20;;;17.90;56.70;;;;;;5048695;28;20263;-76
2022/01/26 14:03:49;;;;;;;19.83;13.40;;;17.70;57.20;;;;;;5050392;28;20174;-76
2022/01/26 14:06:14;;;;;;;16.23;12.50;;;17.50;57.70;;;;;;5048668;28;20184;-76
2022/01/26 14:08:41;;;;;;;18.47;12.77;;;17.40;58.20;;;;;;5049141;28;20169;-76
2022/01/26 14:11:07;;;;;;;18.17;12.73;;;17.30;58.60;;;;;;5048495;28;20176;-76
2022/01/26 14:13:35;;;;;;;15.47;11.53;;;17.20;59.00;;;;;;5048547;28;20252;-76
2022/01/26 14:16:01;;;;;;;18.37;13.07;;;17.10;59.40;;;;;;5065458;28;20197;-76
2022/01/26 14:21:23;;;;;;;17.10;12.53;;;16.90;60.30;;;;;;5067001;28;20346;-75
2022/01/26 14:26:19;;;;;;;18.10;12.37;;;16.80;61.40;;;;;;5070413;28;20264;-76
2022/01/26 14:28:45;;;;;;;16.53;12.23;;;16.70;61.90;;;;;;5068255;28;20170;-76
2022/01/26 14:34:21;;;;;;;16.63;12.13;;;16.60;62.90;;;;;;5067933;28;20256;-76
2022/01/26 14:36:52;;;;;;;16.07;11.50;;;16.60;63.40;;;;;;5068328;28;20177;-75
2022/01/26 14:55:57;;;;;;;14.60;10.53;;;16.30;66.00;;;;;;5067524;28;20219;-75
2022/01/26 15:42:16;;;;;;;11.30;8.53;;;17.30;59.30;;;;;;5051571;28;20654;-76
2022/01/26 15:53:07;;;;;;;10.60;8.73;;;16.90;62.30;;;;;;5027981;28;20187;-76
2022/01/26 15:58:23;;;;;;;11.67;8.30;;;16.80;63.80;;;;;;5056497;28;20219;-75
2022/01/26 16:06:40;;;;;;;11.30;8.03;;;16.60;65.10;;;;;;5053324;28;20187;-76
2022/01/26 16:20:04;;;;;;;12.27;9.10;;;16.40;69.20;;;;;;5075631;28;20185;-76
2022/01/26 16:53:07;;;;;;;15.13;9.47;;;18.10;58.20;;;;;;5070287;28;20191;-76
2022/01/26 18:32:55;;;;;;;11.37;8.00;;;17.80;59.40;;;;;;5070633;28;20576;-76
2022/01/26 18:51:37;;;;;;;10.53;7.50;;;16.90;65.30;;;;;;5073892;28;20188;-76
2022/01/26 18:54:05;;;;;;;10.97;7.60;;;16.90;66.00;;;;;;5055784;28;20176;-76
2022/01/26 18:56:32;;;;;;;11.00;7.87;;;16.80;66.50;;;;;;5073470;28;20188;-76
2022/01/26 18:58:58;;;;;;;13.27;7.23;;;16.70;67.00;;;;;;5056354;28;20333;-76
2022/01/26 19:01:24;;;;;;;11.40;7.60;;;16.60;67.40;;;;;;5055559;28;20582;-76
2022/01/26 19:03:50;;;;;;;9.93;7.17;;;16.60;67.90;;;;;;5055776;28;20168;-77
2022/01/26 19:06:16;;;;;;;10.93;6.73;;;16.50;68.30;;;;;;5056770;28;20250;-77
2022/01/26 19:08:42;;;;;;;10.50;7.50;;;16.50;68.70;;;;;;5056582;28;20804;-76
2022/01/26 19:11:13;;;;;;;9.93;6.83;;;16.50;69.00;;;;;;5057023;28;20189;-77
2022/01/26 19:13:41;;;;;;;9.47;6.87;;;16.40;69.40;;;;;;5039695;28;20180;-76
2022/01/26 19:16:18;;;;;;;10.07;7.23;;;16.40;69.90;;;;;;5056298;28;20208;-76
2022/01/26 19:18:56;;;;;;;10.23;7.47;;;16.40;70.40;;;;;;5055261;28;20434;-76
2022/01/26 19:21:48;;;;;;;8.97;6.53;;;16.30;70.80;;;;;;5056357;28;20215;-76
2022/01/26 19:24:43;;;;;;;19.43;7.57;;;16.30;71.50;;;;;;5072208;28;20177;-76
2022/01/26 19:27:22;;;;;;;11.97;7.07;;;16.20;71.70;;;;;;5073513;28;20414;-76
2022/01/26 19:53:02;;;;;;;9.80;7.00;;;18.80;56.40;;;;;;5072892;28;20422;-76
2022/01/26 19:55:29;;;;;;;9.63;6.60;;;18.90;55.70;;;;;;5055160;28;20201;-77
2022/01/26 19:57:57;;;;;;;9.63;6.93;;;18.80;55.70;;;;;;5055708;28;20177;-76
2022/01/26 20:00:23;;;;;;;10.07;7.10;;;18.60;56.20;;;;;;5055628;28;20546;-76
2022/01/26 20:02:49;;;;;;;10.03;7.27;;;18.40;56.70;;;;;;5055565;28;20194;-77